Wapello, Idaho
Current Conditions -  °F | °C
As of 10:53 PM on Tuesday 27 Jan 2015 (Local Time) from KIDA Reporting Station
Overcast Overcast  
Wind Chill: 35°   Ceiling: 5500
Heat Index: 39°   Visibility: 10mi
Dew Point: 34°   Wind: 6mph
Humidity: 82%   Direction: 190°S
Pressure: 30.12"   Gusts: NA
Location:  43.2718°N, 112.405°W
Report Text: KIDA 280553Z AUTO 19005KT 10SM BKN055 OVC070 04/01 A3012 RMK AO2 SLP214 60001 T00390011 10050 20017 56001
Loading
Personal Weather Stations






























Interactive Weather Map New forecast layout! Learn more

10-Day Weather Forecast

Advertisements
Track Severe Weather on mobile